Nissan Maru — JG5485 — position and weather

sailwx.info

Track history (hours):
 
Tides and Currents Weather Stations Pressure Air Temp Water Temp Dewpoint Dewpoint Depression Visibility Wind Speed Wind Dir Waves Ship Positions

Nissan Maru

Last reported at 2015-Sep-01 07:19 UTC. Time now 2015-Sep-03 09:00 UTC.
Position N 34°59' E 139°27'.

Length 108 m; draft 5.3 m.

Type: Cargo ship. MMSI: 431400593.

Date/timePositionNaut miles runAvg speedWind from/ knotsBaromVisibWave heightAir tempDewpointWater temp
2015-Sep-01 07:19N 34°59' E 139°27'1013.7
2015-Sep-01 06:34N 35°05' E 139°37'1312.6
2015-Sep-01 05:34N 35°15' E 139°46'10 9.7
2015-Sep-01 04:33N 35°25' E 139°46'0 0.1
2015-Sep-01 03:33N 35°25' E 139°45'3 3.0
2015-Sep-01 02:33N 35°28' E 139°45'2 1.7
2015-Sep-01 01:33N 35°29' E 139°44'0 0.0
2015-Sep-01 00:33N 35°29' E 139°44'0 0.0
2015-Aug-31 23:33N 35°29' E 139°44'0 0.0
2015-Aug-31 22:33N 35°29' E 139°44'0 0.0
2015-Aug-31 21:33N 35°29' E 139°44'0 0.0
2015-Aug-31 20:33N 35°29' E 139°44'0 0.0
2015-Aug-31 19:33N 35°29' E 139°44'0 0.0
2015-Aug-31 18:33N 35°29' E 139°44'0 0.0
2015-Aug-31 17:33N 35°29' E 139°44'0 0.0
2015-Aug-31 16:33N 35°29' E 139°44'0 0.0
2015-Aug-31 15:33N 35°29' E 139°44'0 0.0
2015-Aug-31 14:30N 35°29' E 139°44'0 0.0
2015-Aug-31 13:33N 35°29' E 139°44'3 3.4
2015-Aug-31 12:33N 35°26' E 139°46'1010.2
2015-Aug-31 11:33N 35°16' E 139°46'1111.3
2015-Aug-31 10:33N 35°05' E 139°43'  
2015-Aug-28 20:32N 35°00' E 139°30'1312.9
2015-Aug-28 19:33N 35°08' E 139°42'1211.6
2015-Aug-28 18:34N 35°19' E 139°43'10 9.9
2015-Aug-28 17:34N 35°29' E 139°44'0 0.0
2015-Aug-28 16:31N 35°29' E 139°44'0 0.0
2015-Aug-28 15:31N 35°29' E 139°44'0 0.0
2015-Aug-28 14:31N 35°29' E 139°44'0 0.0
2015-Aug-28 13:31N 35°29' E 139°44'0 0.0
2015-Aug-28 12:31N 35°29' E 139°44'0 0.0
2015-Aug-28 11:31N 35°29' E 139°44'0 0.0
2015-Aug-28 10:31N 35°29' E 139°44'0 0.0
2015-Aug-28 09:31N 35°29' E 139°44'0 0.0
2015-Aug-28 08:31N 35°29' E 139°44'0 0.0
2015-Aug-28 07:31N 35°29' E 139°44'0 0.0
2015-Aug-28 06:31N 35°29' E 139°44'0 0.0
2015-Aug-28 05:28N 35°29' E 139°44'0 0.2
2015-Aug-28 04:33N 35°29' E 139°44'10 9.7
2015-Aug-28 03:33N 35°19' E 139°44'1110.6
2015-Aug-28 02:33N 35°09' E 139°46'  
2015-Aug-23 05:16N 34°60' E 139°28'913.0
2015-Aug-23 04:33N 35°05' E 139°38'1212.3
2015-Aug-23 03:33N 35°15' E 139°46'1110.9
2015-Aug-23 02:33N 35°26' E 139°45'1313.1
2015-Aug-23 01:33N 35°33' E 139°58'7 7.0
2015-Aug-23 00:33N 35°35' E 140°07'0 0.1
2015-Aug-22 23:20N 35°35' E 140°07'0 0.0
2015-Aug-22 22:20N 35°35' E 140°07'0 0.0
2015-Aug-22 21:20N 35°35' E 140°07'0 0.0
2015-Aug-22 19:32N 35°35' E 140°07'0 0.0
2015-Aug-22 18:14N 35°35' E 140°07'0 0.0
2015-Aug-22 17:20N 35°35' E 140°07'0 0.0
2015-Aug-22 16:26N 35°35' E 140°07'0 0.0
2015-Aug-22 15:20N 35°35' E 140°07'0 0.0
2015-Aug-22 14:32N 35°35' E 140°07'0 0.0
2015-Aug-22 13:32N 35°35' E 140°07'0 0.0
2015-Aug-22 11:32N 35°35' E 140°07'0 0.0
2015-Aug-22 10:20N 35°35' E 140°07'0 0.0
2015-Aug-22 09:32N 35°35' E 140°07'0 0.0
2015-Aug-22 07:26N 35°35' E 140°07'  
Track history (hours):
 
Tides and Currents Weather Stations Pressure Air Temp Water Temp Dewpoint Dewpoint Depression Visibility Wind Speed Wind Dir Waves Ship Positions

Nissan Maru

Last reported at 2015-Sep-01 07:19 UTC. Time now 2015-Sep-03 09:00 UTC.
Position N 34°59' E 139°27'.

Length 108 m; draft 5.3 m.

Type: Cargo ship. MMSI: 431400593.

Date/timePositionNaut miles runAvg speedWind from/ knotsBaromVisibWave heightAir tempDewpointWater temp
2015-Sep-01 07:19N 34°59' E 139°27'1013.7
2015-Sep-01 06:34N 35°05' E 139°37'1312.6
2015-Sep-01 05:34N 35°15' E 139°46'10 9.7
2015-Sep-01 04:33N 35°25' E 139°46'0 0.1
2015-Sep-01 03:33N 35°25' E 139°45'3 3.0
2015-Sep-01 02:33N 35°28' E 139°45'2 1.7
2015-Sep-01 01:33N 35°29' E 139°44'0 0.0
2015-Sep-01 00:33N 35°29' E 139°44'0 0.0
2015-Aug-31 23:33N 35°29' E 139°44'0 0.0
2015-Aug-31 22:33N 35°29' E 139°44'0 0.0
2015-Aug-31 21:33N 35°29' E 139°44'0 0.0
2015-Aug-31 20:33N 35°29' E 139°44'0 0.0
2015-Aug-31 19:33N 35°29' E 139°44'0 0.0
2015-Aug-31 18:33N 35°29' E 139°44'0 0.0
2015-Aug-31 17:33N 35°29' E 139°44'0 0.0
2015-Aug-31 16:33N 35°29' E 139°44'0 0.0
2015-Aug-31 15:33N 35°29' E 139°44'0 0.0
2015-Aug-31 14:30N 35°29' E 139°44'0 0.0
2015-Aug-31 13:33N 35°29' E 139°44'3 3.4
2015-Aug-31 12:33N 35°26' E 139°46'1010.2
2015-Aug-31 11:33N 35°16' E 139°46'1111.3
2015-Aug-31 10:33N 35°05' E 139°43'  
2015-Aug-28 20:32N 35°00' E 139°30'1312.9
2015-Aug-28 19:33N 35°08' E 139°42'1211.6
2015-Aug-28 18:34N 35°19' E 139°43'10 9.9
2015-Aug-28 17:34N 35°29' E 139°44'0 0.0
2015-Aug-28 16:31N 35°29' E 139°44'0 0.0
2015-Aug-28 15:31N 35°29' E 139°44'0 0.0
2015-Aug-28 14:31N 35°29' E 139°44'0 0.0
2015-Aug-28 13:31N 35°29' E 139°44'0 0.0
2015-Aug-28 12:31N 35°29' E 139°44'0 0.0
2015-Aug-28 11:31N 35°29' E 139°44'0 0.0
2015-Aug-28 10:31N 35°29' E 139°44'0 0.0
2015-Aug-28 09:31N 35°29' E 139°44'0 0.0
2015-Aug-28 08:31N 35°29' E 139°44'0 0.0
2015-Aug-28 07:31N 35°29' E 139°44'0 0.0
2015-Aug-28 06:31N 35°29' E 139°44'0 0.0
2015-Aug-28 05:28N 35°29' E 139°44'0 0.2
2015-Aug-28 04:33N 35°29' E 139°44'10 9.7
2015-Aug-28 03:33N 35°19' E 139°44'1110.6
2015-Aug-28 02:33N 35°09' E 139°46'  
2015-Aug-23 05:16N 34°60' E 139°28'913.0
2015-Aug-23 04:33N 35°05' E 139°38'1212.3
2015-Aug-23 03:33N 35°15' E 139°46'1110.9
2015-Aug-23 02:33N 35°26' E 139°45'1313.1
2015-Aug-23 01:33N 35°33' E 139°58'7 7.0
2015-Aug-23 00:33N 35°35' E 140°07'0 0.1
2015-Aug-22 23:20N 35°35' E 140°07'0 0.0
2015-Aug-22 22:20N 35°35' E 140°07'0 0.0
2015-Aug-22 21:20N 35°35' E 140°07'0 0.0
2015-Aug-22 19:32N 35°35' E 140°07'0 0.0
2015-Aug-22 18:14N 35°35' E 140°07'0 0.0
2015-Aug-22 17:20N 35°35' E 140°07'0 0.0
2015-Aug-22 16:26N 35°35' E 140°07'0 0.0
2015-Aug-22 15:20N 35°35' E 140°07'0 0.0
2015-Aug-22 14:32N 35°35' E 140°07'0 0.0
2015-Aug-22 13:32N 35°35' E 140°07'0 0.0
2015-Aug-22 11:32N 35°35' E 140°07'0 0.0
2015-Aug-22 10:20N 35°35' E 140°07'0 0.0
2015-Aug-22 09:32N 35°35' E 140°07'0 0.0
2015-Aug-22 07:26N 35°35' E 140°07'  

Dump ship's entire track history